createdAt,value
2019-04-14T00:02:55.476Z,4.11
2019-04-14T00:08:00.347Z,4.09
2019-04-14T00:13:05.130Z,4.08
2019-04-14T00:18:09.744Z,4.06
2019-04-14T00:23:15.158Z,4.09
2019-04-14T00:28:20.649Z,4.12
2019-04-14T00:33:28.022Z,4.11
2019-04-14T00:38:34.613Z,4.15
2019-04-14T00:43:49.227Z,4.16
2019-04-14T00:48:54.025Z,4.16
2019-04-14T00:54:00.215Z,4.17
2019-04-14T00:59:07.029Z,4.19
2019-04-14T01:04:12.238Z,4.19
2019-04-14T01:09:17.250Z,4.22
2019-04-14T01:14:21.773Z,4.22
2019-04-14T01:19:26.630Z,4.23
2019-04-14T01:24:31.568Z,4.26
2019-04-14T01:29:36.319Z,4.23
2019-04-14T01:34:41.764Z,4.24
2019-04-14T01:39:46.275Z,4.22
2019-04-14T01:44:50.725Z,4.23
2019-04-14T01:49:55.247Z,4.23
2019-04-14T01:55:17.754Z,4.23
2019-04-14T02:00:44.413Z,4.23
2019-04-14T02:05:49.605Z,4.22
2019-04-14T02:10:54.429Z,4.23
2019-04-14T02:16:12.849Z,4.23
2019-04-14T02:21:06.356Z,4.24
2019-04-14T02:26:11.290Z,4.24
2019-04-14T02:31:39.399Z,4.23
2019-04-14T02:36:47.941Z,4.23
2019-04-14T02:42:06.862Z,4.21
2019-04-14T02:47:12.356Z,4.24
2019-04-14T02:52:13.933Z,4.23
2019-04-14T02:57:19.975Z,4.26
2019-04-14T03:07:30.264Z,4.30
2019-04-14T03:12:34.680Z,4.33
2019-04-14T03:18:20.488Z,4.33
2019-04-14T03:23:14.943Z,4.38
2019-04-14T03:28:27.718Z,4.39
2019-04-14T03:38:50.243Z,4.41
2019-04-14T03:43:38.791Z,4.44
2019-04-14T03:53:55.955Z,4.47
2019-04-14T03:58:35.744Z,4.48
2019-04-14T04:03:41.357Z,4.52
2019-04-14T04:08:46.442Z,4.51
2019-04-14T04:13:52.000Z,4.55
2019-04-14T04:19:05.655Z,4.54
2019-04-14T04:24:12.870Z,4.56
2019-04-14T04:29:22.334Z,4.60
2019-04-14T04:34:31.652Z,4.64
2019-04-14T04:39:38.659Z,4.68
2019-04-14T04:44:44.218Z,4.73
2019-04-14T04:49:49.049Z,4.78
2019-04-14T04:54:53.858Z,4.84
2019-04-14T04:59:58.409Z,4.90
2019-04-14T05:05:03.573Z,4.96
2019-04-14T05:10:13.185Z,5.03
2019-04-14T05:15:20.484Z,5.10
2019-04-14T05:20:25.124Z,5.16
2019-04-14T05:25:29.744Z,5.21
2019-04-14T05:30:35.005Z,5.28
2019-04-14T05:35:40.136Z,5.35
2019-04-14T05:40:45.085Z,5.42
2019-04-14T05:45:50.168Z,5.48
2019-04-14T05:50:55.497Z,5.51
2019-04-14T05:55:59.980Z,5.59
2019-04-14T06:01:04.861Z,5.63
2019-04-14T06:06:09.265Z,5.70
2019-04-14T06:11:13.909Z,5.78
2019-04-14T06:16:18.413Z,5.89
2019-04-14T06:21:23.031Z,6.13
2019-04-14T06:26:27.523Z,6.39
2019-04-14T06:31:45.822Z,6.63
2019-04-14T06:36:52.963Z,6.94
2019-04-14T06:41:57.506Z,7.15
2019-04-14T06:47:02.259Z,7.28
2019-04-14T06:52:08.042Z,7.33
2019-04-14T06:57:12.637Z,7.40
2019-04-14T07:02:17.096Z,7.43
2019-04-14T07:07:21.724Z,7.49
2019-04-14T07:12:27.956Z,7.64
2019-04-14T07:17:32.405Z,7.82
2019-04-14T07:22:37.055Z,7.92
2019-04-14T07:27:41.528Z,8.10
2019-04-14T07:32:50.420Z,8.19
2019-04-14T07:37:56.647Z,8.19
2019-04-14T07:43:05.840Z,8.18
2019-04-14T07:48:12.032Z,8.19
2019-04-14T07:53:26.992Z,8.22
2019-04-14T07:58:33.111Z,8.46
2019-04-14T08:03:41.250Z,8.73
2019-04-14T08:08:45.785Z,9.20
2019-04-14T08:13:50.365Z,9.32
2019-04-14T08:18:55.022Z,9.50
2019-04-14T08:23:59.524Z,9.57
2019-04-14T08:29:04.137Z,9.50
2019-04-14T08:34:08.545Z,9.52
2019-04-14T08:39:13.052Z,9.51
2019-04-14T08:44:31.082Z,9.67
2019-04-14T08:49:49.304Z,9.91
2019-04-14T08:54:55.395Z,10.24
2019-04-14T09:00:18.056Z,10.39
2019-04-14T09:05:40.522Z,10.19
2019-04-14T09:11:02.062Z,10.02
2019-04-14T09:16:06.581Z,10.13
2019-04-14T09:21:11.138Z,10.35
2019-04-14T09:26:15.724Z,10.60
2019-04-14T09:31:20.199Z,10.98
2019-04-14T09:36:24.684Z,11.13
2019-04-14T09:41:29.236Z,10.84
2019-04-14T09:46:34.769Z,11.07
2019-04-14T09:51:39.408Z,11.54
2019-04-14T09:56:44.047Z,11.64
2019-04-14T10:01:48.735Z,11.83
2019-04-14T10:06:53.304Z,12.21
2019-04-14T10:11:57.839Z,12.48
2019-04-14T10:17:02.427Z,12.52
2019-04-14T10:22:07.897Z,12.75
2019-04-14T10:27:14.815Z,12.92
2019-04-14T10:32:19.270Z,13.00
2019-04-14T10:37:23.877Z,13.22
2019-04-14T10:42:28.476Z,13.75
2019-04-14T10:47:33.081Z,13.75
2019-04-14T10:52:37.618Z,14.10
2019-04-14T10:57:42.083Z,14.40
2019-04-14T11:02:46.733Z,14.89
2019-04-14T11:07:51.302Z,15.14
2019-04-14T11:12:56.850Z,14.81
2019-04-14T11:18:01.368Z,14.74
2019-04-14T11:23:05.897Z,15.27
2019-04-14T11:28:10.485Z,15.85
2019-04-14T11:33:16.728Z,16.62
2019-04-14T11:38:28.369Z,17.22
2019-04-14T11:43:33.109Z,17.29
2019-04-14T11:48:37.637Z,17.73
2019-04-14T11:53:42.331Z,18.41
2019-04-14T11:58:46.935Z,18.65
2019-04-14T12:03:53.133Z,18.29
2019-04-14T12:09:17.819Z,17.42
2019-04-14T12:14:22.293Z,18.28
2019-04-14T12:19:26.836Z,17.86
2019-04-14T12:24:31.441Z,17.23
2019-04-14T12:29:36.888Z,17.34
2019-04-14T12:34:41.539Z,17.04
2019-04-14T12:39:47.211Z,17.36
2019-04-14T12:44:56.053Z,17.58
2019-04-14T12:50:07.906Z,19.14
2019-04-14T12:55:13.397Z,19.90
2019-04-14T13:00:35.568Z,18.97
2019-04-14T13:05:40.042Z,17.46
2019-04-14T13:10:44.594Z,18.04
2019-04-14T13:15:49.067Z,19.71
2019-04-14T13:20:53.673Z,21.23
2019-04-14T13:25:58.253Z,22.40
2019-04-14T13:31:02.776Z,23.00
2019-04-14T13:36:07.357Z,23.66
2019-04-14T13:41:12.180Z,24.65
2019-04-14T13:46:16.793Z,24.93
2019-04-14T13:51:21.463Z,24.75
2019-04-14T13:56:26.147Z,24.29
2019-04-14T14:01:30.816Z,24.34
2019-04-14T14:06:36.456Z,24.09
2019-04-14T14:11:54.426Z,23.18
2019-04-14T14:17:03.143Z,22.59
2019-04-14T14:22:09.349Z,22.45
2019-04-14T14:27:14.024Z,22.71
2019-04-14T14:32:20.451Z,23.21
2019-04-14T14:37:25.234Z,23.47
2019-04-14T14:42:29.853Z,23.72
2019-04-14T14:47:35.704Z,24.36
2019-04-14T14:52:41.207Z,24.41
2019-04-14T14:57:45.898Z,24.15
2019-04-14T15:02:50.702Z,23.77
2019-04-14T15:07:55.429Z,23.73
2019-04-14T15:13:01.213Z,23.53
2019-04-14T15:18:05.946Z,23.63
2019-04-14T15:23:10.500Z,22.73
2019-04-14T15:28:15.769Z,22.92
2019-04-14T15:33:20.650Z,23.22
2019-04-14T15:38:25.315Z,23.90
2019-04-14T15:43:30.864Z,24.25
2019-04-14T15:48:35.433Z,24.11
2019-04-14T15:53:39.994Z,23.90
2019-04-14T15:58:46.765Z,22.13
2019-04-14T16:03:56.046Z,21.82
2019-04-14T16:09:05.071Z,22.94
2019-04-14T16:14:12.910Z,21.86
2019-04-14T16:19:33.914Z,20.36
2019-04-14T16:24:38.374Z,19.31
2019-04-14T16:29:47.072Z,18.76
2019-04-14T16:34:53.343Z,18.24
2019-04-14T16:39:58.217Z,18.11
2019-04-14T16:45:03.098Z,17.40
2019-04-14T16:50:10.507Z,16.46
2019-04-14T17:00:37.122Z,15.05
2019-04-14T17:05:41.932Z,14.40
2019-04-14T17:10:46.499Z,13.81
2019-04-14T17:16:08.108Z,13.33
2019-04-14T17:21:20.277Z,12.84
2019-04-14T17:26:43.639Z,12.30
2019-04-14T17:31:52.783Z,11.89
2019-04-14T17:37:07.988Z,11.47
2019-04-14T17:42:19.161Z,11.16
2019-04-14T17:47:26.463Z,10.86
2019-04-14T17:52:39.812Z,10.59
2019-04-14T17:57:49.271Z,10.36
2019-04-14T18:02:56.142Z,10.15
2019-04-14T18:08:02.430Z,9.97
2019-04-14T18:13:14.304Z,9.83
2019-04-14T18:18:20.528Z,9.73
2019-04-14T18:23:26.654Z,9.64
2019-04-14T18:28:51.771Z,9.55
2019-04-14T18:34:07.033Z,9.44
2019-04-14T18:39:29.110Z,9.28
2019-04-14T18:44:44.338Z,9.25
2019-04-14T18:49:53.332Z,9.12
2019-04-14T18:55:08.743Z,9.04
2019-04-14T19:00:21.188Z,8.86
2019-04-14T19:05:25.735Z,8.81
2019-04-14T19:10:30.266Z,8.75
2019-04-14T19:15:36.724Z,8.70
2019-04-14T19:20:42.839Z,8.64
2019-04-14T19:25:47.530Z,8.53
2019-04-14T19:30:52.988Z,8.45
2019-04-14T19:35:57.932Z,8.38
2019-04-14T19:41:02.640Z,8.26
2019-04-14T19:46:10.056Z,8.14
2019-04-14T19:51:14.704Z,8.05
2019-04-14T19:56:19.253Z,7.97
2019-04-14T20:01:23.845Z,7.86
2019-04-14T20:06:28.390Z,7.83
2019-04-14T20:11:34.016Z,7.81
2019-04-14T20:16:49.384Z,7.76
2019-04-14T20:22:01.448Z,7.71
2019-04-14T20:27:07.770Z,7.66
2019-04-14T20:32:14.158Z,7.60
2019-04-14T20:37:18.693Z,7.51
2019-04-14T20:42:23.521Z,7.43
2019-04-14T20:47:28.109Z,7.37
2019-04-14T20:52:32.629Z,7.28
2019-04-14T20:57:37.274Z,7.19
2019-04-14T21:03:02.668Z,7.16
2019-04-14T21:08:14.697Z,7.07
2019-04-14T21:13:33.121Z,6.99
2019-04-14T21:18:42.285Z,6.98
2019-04-14T21:24:01.582Z,6.92
2019-04-14T21:29:11.105Z,6.89
2019-04-14T21:34:17.364Z,6.86
2019-04-14T21:39:40.646Z,6.80
2019-04-14T21:44:44.789Z,6.74
2019-04-14T21:49:49.214Z,6.67
2019-04-14T21:54:53.748Z,6.60
2019-04-14T22:00:05.690Z,6.59
2019-04-14T22:05:19.219Z,6.51
2019-04-14T22:10:25.427Z,6.43
2019-04-14T22:15:29.918Z,6.41
2019-04-14T22:20:34.349Z,6.40
2019-04-14T22:25:39.783Z,6.34
2019-04-14T22:30:44.336Z,6.26
2019-04-14T22:35:48.827Z,6.24
2019-04-14T22:40:53.399Z,6.21
2019-04-14T22:45:57.847Z,6.12
2019-04-14T22:51:02.402Z,6.07
2019-04-14T22:56:07.886Z,5.98
2019-04-14T23:01:14.041Z,5.93
2019-04-14T23:06:20.202Z,5.83
2019-04-14T23:11:41.079Z,5.76
2019-04-14T23:16:47.254Z,5.71
2019-04-14T23:21:53.389Z,5.65
2019-04-14T23:26:58.047Z,5.57
2019-04-14T23:32:02.544Z,5.48
2019-04-14T23:37:07.139Z,5.34
2019-04-14T23:42:11.619Z,5.19
2019-04-14T23:47:16.253Z,5.15
2019-04-14T23:52:20.758Z,5.04
2019-04-14T23:57:25.248Z,4.98
